createdAt,value
2019-03-01T00:00:31.702Z,35.07
2019-03-01T00:03:02.960Z,35.90
2019-03-01T00:06:02.003Z,36.35
2019-03-01T00:09:13.310Z,34.33
2019-03-01T00:12:15.439Z,33.37
2019-03-01T00:15:17.890Z,35.17
2019-03-01T00:18:22.788Z,38.13
2019-03-01T00:21:40.315Z,36.27
2019-03-01T00:24:51.690Z,32.58
2019-03-01T00:27:50.945Z,38.83
2019-03-01T00:31:05.201Z,35.77
2019-03-01T00:34:11.965Z,36.60
2019-03-01T00:36:53.902Z,34.45
2019-03-01T00:39:33.549Z,35.37
2019-03-01T00:42:30.920Z,48.67
2019-03-01T00:45:01.527Z,98.53
2019-03-01T00:47:32.281Z,82.47
2019-03-01T00:50:02.844Z,51.17
2019-03-01T00:52:33.616Z,34.93
2019-03-01T00:55:04.893Z,33.07
2019-03-01T00:57:35.720Z,35.95
2019-03-01T01:00:08.333Z,35.98
2019-03-01T01:02:38.815Z,34.33
2019-03-01T01:05:09.503Z,33.57
2019-03-01T01:07:40.391Z,36.87
2019-03-01T01:13:06.452Z,29.60
2019-03-01T01:15:37.168Z,37.20
2019-03-01T01:18:07.921Z,36.17
2019-03-01T01:20:38.830Z,38.90
2019-03-01T01:23:09.713Z,36.33
2019-03-01T01:25:40.601Z,38.00
2019-03-01T01:28:11.463Z,37.83
2019-03-01T01:30:42.787Z,37.13
2019-03-01T01:33:14.183Z,44.57
2019-03-01T01:35:44.966Z,33.33
2019-03-01T01:38:15.353Z,36.00
2019-03-01T01:40:45.760Z,45.23
2019-03-01T01:43:16.700Z,37.53
2019-03-01T01:45:48.198Z,36.28
2019-03-01T01:48:18.844Z,38.57
2019-03-01T01:50:50.116Z,43.60
2019-03-01T01:53:21.049Z,39.70
2019-03-01T01:55:52.045Z,41.47
2019-03-01T01:58:22.793Z,39.67
2019-03-01T02:00:53.790Z,41.67
2019-03-01T02:03:24.915Z,43.80
2019-03-01T02:05:55.778Z,41.33
2019-03-01T02:08:26.782Z,43.37
2019-03-01T02:10:57.722Z,40.47
2019-03-01T02:13:28.801Z,39.73
2019-03-01T02:15:59.423Z,41.08
2019-03-01T02:18:30.726Z,41.80
2019-03-01T02:21:01.482Z,41.10
2019-03-01T02:23:32.141Z,39.13
2019-03-01T02:26:02.828Z,37.27
2019-03-01T02:28:33.729Z,39.27
2019-03-01T02:31:05.461Z,44.00
2019-03-01T02:33:36.511Z,39.47
2019-03-01T02:36:07.399Z,45.78
2019-03-01T02:38:38.368Z,40.23
2019-03-01T02:41:10.645Z,43.53
2019-03-01T02:43:41.981Z,46.83
2019-03-01T02:46:12.866Z,45.30
2019-03-01T02:48:43.470Z,39.57
2019-03-01T02:51:14.240Z,42.93
2019-03-01T02:53:44.980Z,36.07
2019-03-01T02:56:15.694Z,40.37
2019-03-01T02:58:46.556Z,37.93
2019-03-01T03:01:17.187Z,36.60
2019-03-01T03:03:47.651Z,35.47
2019-03-01T03:06:23.226Z,41.77
2019-03-01T03:08:53.961Z,39.37
2019-03-01T03:11:25.094Z,40.90
2019-03-01T03:13:55.655Z,39.93
2019-03-01T03:16:26.496Z,36.50
2019-03-01T03:18:56.902Z,38.80
2019-03-01T03:21:27.789Z,43.97
2019-03-01T03:23:59.174Z,36.42
2019-03-01T03:26:29.824Z,41.30
2019-03-01T03:29:00.922Z,33.20
2019-03-01T03:31:31.916Z,38.13
2019-03-01T03:34:02.699Z,36.58
2019-03-01T03:36:33.842Z,38.38
2019-03-01T03:39:06.056Z,32.03
2019-03-01T03:41:36.978Z,33.67
2019-03-01T03:44:08.077Z,32.40
2019-03-01T03:46:39.060Z,29.37
2019-03-01T03:49:11.446Z,33.73
2019-03-01T04:53:58.416Z,21.52
2019-03-01T04:56:31.465Z,21.80
2019-03-01T04:59:02.488Z,22.22
2019-03-01T05:01:33.605Z,16.57
2019-03-01T05:04:04.583Z,21.17
2019-03-01T05:06:35.746Z,18.82
2019-03-01T05:09:07.841Z,17.52
2019-03-01T05:11:38.937Z,17.90
2019-03-01T05:14:10.157Z,18.55
2019-03-01T05:16:41.231Z,15.30
2019-03-01T05:19:12.255Z,16.20
2019-03-01T05:21:43.418Z,20.40
2019-03-01T05:24:14.483Z,19.50
2019-03-01T05:26:45.625Z,19.90
2019-03-01T05:29:16.547Z,16.40
2019-03-01T05:31:47.610Z,20.25
2019-03-01T05:34:18.591Z,19.45
2019-03-01T05:36:49.842Z,16.93
2019-03-01T05:39:20.896Z,16.60
2019-03-01T05:41:52.095Z,17.12
2019-03-01T05:44:23.562Z,19.85
2019-03-01T05:46:55.497Z,14.60
2019-03-01T05:49:26.620Z,19.98
2019-03-01T05:51:57.832Z,15.90
2019-03-01T05:54:29.200Z,21.68
2019-03-01T05:57:00.368Z,18.30
2019-03-01T05:59:31.705Z,17.15
2019-03-01T06:02:51.127Z,17.45
2019-03-01T06:05:29.144Z,18.95
2019-03-01T06:08:38.346Z,18.60
2019-03-01T06:11:14.680Z,18.32
2019-03-01T06:14:25.189Z,20.92
2019-03-01T06:18:01.591Z,21.42
2019-03-01T06:20:57.595Z,22.52
2019-03-01T06:23:52.801Z,20.30
2019-03-01T06:27:03.954Z,17.90
2019-03-01T06:30:04.836Z,18.98
2019-03-01T06:33:30.551Z,15.32
2019-03-01T06:36:06.538Z,22.48
2019-03-01T06:39:25.587Z,15.45
2019-03-01T06:42:14.843Z,14.10
2019-03-01T06:45:17.712Z,14.03
2019-03-01T06:47:49.164Z,18.60
2019-03-01T06:50:24.828Z,20.85
2019-03-01T06:52:55.928Z,20.62
2019-03-01T06:55:45.462Z,23.57
2019-03-01T06:58:22.033Z,17.45
2019-03-01T07:00:55.158Z,15.20
2019-03-01T07:03:26.143Z,24.47
2019-03-01T07:06:03.400Z,17.52
2019-03-01T07:08:30.396Z,18.82
2019-03-01T07:11:01.415Z,16.70
2019-03-01T07:13:32.261Z,21.57
2019-03-01T07:16:03.376Z,17.40
2019-03-01T07:18:34.556Z,16.42
2019-03-01T07:21:05.544Z,18.42
2019-03-01T07:23:37.224Z,15.63
2019-03-01T07:26:08.822Z,18.23
2019-03-01T07:28:40.116Z,19.32
2019-03-01T07:31:11.289Z,17.17
2019-03-01T07:33:42.474Z,16.87
2019-03-01T07:36:13.491Z,18.57
2019-03-01T07:38:44.505Z,19.82
2019-03-01T07:41:15.560Z,15.40
2019-03-01T07:43:46.796Z,17.07
2019-03-01T07:46:18.161Z,15.83
2019-03-01T07:48:49.324Z,13.95
2019-03-01T07:51:20.281Z,16.62
2019-03-01T07:53:51.353Z,12.63
2019-03-01T07:56:22.603Z,16.27
2019-03-01T07:58:54.012Z,14.28
2019-03-01T08:01:25.752Z,18.70
2019-03-01T08:03:57.879Z,18.37
2019-03-01T08:06:29.283Z,18.90
2019-03-01T08:09:00.935Z,18.00
2019-03-01T08:11:32.538Z,24.25
2019-03-01T08:14:04.822Z,17.45
2019-03-01T08:16:35.876Z,12.55
2019-03-01T08:19:06.836Z,15.53
2019-03-01T08:21:37.948Z,13.30
2019-03-01T08:24:11.000Z,14.70
2019-03-01T08:26:41.816Z,13.28
2019-03-01T08:29:12.741Z,14.10
2019-03-01T08:31:43.891Z,12.33
2019-03-01T08:34:17.714Z,13.08
2019-03-01T08:36:47.782Z,14.73
2019-03-01T08:39:18.668Z,18.65
2019-03-01T08:41:49.623Z,14.58
2019-03-01T08:44:23.123Z,13.30
2019-03-01T08:46:53.438Z,14.75
2019-03-01T08:49:24.629Z,12.75
2019-03-01T08:51:58.499Z,14.87
2019-03-01T08:54:30.989Z,15.30
2019-03-01T08:57:01.735Z,13.43
2019-03-01T08:59:32.900Z,15.72
2019-03-01T09:02:03.912Z,17.57
2019-03-01T09:04:37.920Z,12.95
2019-03-01T09:07:07.665Z,14.75
2019-03-01T09:09:38.787Z,16.32
2019-03-01T09:12:10.078Z,14.78
2019-03-01T09:14:41.287Z,17.32
2019-03-01T09:17:12.254Z,14.93
2019-03-01T09:19:43.588Z,14.70
2019-03-01T09:22:14.502Z,14.58
2019-03-01T09:24:46.160Z,15.35
2019-03-01T09:27:17.211Z,15.83
2019-03-01T09:29:48.318Z,19.23
2019-03-01T09:32:19.228Z,17.98
2019-03-01T09:34:52.211Z,18.48
2019-03-01T09:37:23.121Z,17.00
2019-03-01T09:39:54.859Z,13.88
2019-03-01T09:42:25.720Z,18.12
2019-03-01T09:44:56.866Z,18.75
2019-03-01T09:47:28.029Z,14.25
2019-03-01T09:50:00.143Z,17.73
2019-03-01T09:52:31.756Z,13.62
2019-03-01T09:55:02.991Z,16.77
2019-03-01T09:57:34.461Z,17.42
2019-03-01T10:00:07.299Z,16.62
2019-03-01T10:02:38.662Z,20.60
2019-03-01T10:05:11.669Z,17.52
2019-03-01T10:07:42.565Z,16.90
2019-03-01T10:10:14.566Z,18.62
2019-03-01T10:12:45.697Z,16.67
2019-03-01T10:15:17.100Z,14.53
2019-03-01T10:17:48.020Z,13.70
2019-03-01T10:20:19.008Z,17.30
2019-03-01T10:22:50.206Z,17.62
2019-03-01T10:25:21.528Z,15.35
2019-03-01T10:27:52.470Z,36.63
2019-03-01T10:30:23.622Z,28.77
2019-03-01T10:32:54.820Z,34.75
2019-03-01T10:35:25.464Z,21.83
2019-03-01T10:37:56.145Z,19.77
2019-03-01T10:40:27.214Z,22.80
2019-03-01T10:42:58.550Z,17.50
2019-03-01T10:45:29.531Z,17.27
2019-03-01T10:48:00.492Z,19.03
2019-03-01T10:50:31.169Z,19.60
2019-03-01T10:53:02.299Z,18.90
2019-03-01T10:55:33.484Z,12.68
2019-03-01T10:58:05.071Z,13.50
2019-03-01T11:00:36.330Z,15.10
2019-03-01T11:03:07.546Z,12.43
2019-03-01T11:05:38.393Z,14.97
2019-03-01T11:08:09.376Z,13.40
2019-03-01T11:10:40.077Z,12.77
2019-03-01T11:13:10.937Z,13.40
2019-03-01T11:15:42.086Z,13.50
2019-03-01T11:18:13.257Z,12.33
2019-03-01T11:20:44.024Z,14.13
2019-03-01T11:23:14.953Z,15.23
2019-03-01T11:25:45.617Z,16.17
2019-03-01T11:28:18.127Z,14.07
2019-03-01T11:30:48.952Z,9.73
2019-03-01T11:33:20.154Z,10.63
2019-03-01T11:35:51.124Z,10.90
2019-03-01T11:38:21.965Z,10.20
2019-03-01T11:40:53.556Z,10.60
2019-03-01T11:43:25.043Z,10.20
2019-03-01T11:45:56.090Z,12.93
2019-03-01T11:48:27.008Z,8.37
2019-03-01T11:50:58.119Z,9.97
2019-03-01T11:53:29.186Z,9.20
2019-03-01T11:56:00.040Z,12.63
2019-03-01T11:58:30.745Z,12.57
2019-03-01T12:01:01.861Z,8.70
2019-03-01T12:03:33.376Z,11.43
2019-03-01T12:06:04.500Z,9.47
2019-03-01T12:08:35.567Z,11.43
2019-03-01T12:11:07.020Z,8.83
2019-03-01T12:13:37.872Z,8.13
2019-03-01T12:16:08.864Z,11.67
2019-03-01T12:18:39.594Z,7.50
2019-03-01T12:21:10.470Z,9.50
2019-03-01T12:23:41.815Z,9.27
2019-03-01T12:26:12.706Z,9.47
2019-03-01T12:28:43.881Z,8.27
2019-03-01T12:31:14.908Z,7.37
2019-03-01T12:33:45.771Z,8.63
2019-03-01T12:36:16.621Z,7.93
2019-03-01T12:38:48.056Z,7.10
2019-03-01T12:41:19.087Z,7.50
2019-03-01T12:43:51.654Z,9.03
2019-03-01T12:46:22.594Z,10.23
2019-03-01T12:48:53.474Z,10.07
2019-03-01T12:51:24.454Z,12.20
2019-03-01T12:53:55.350Z,10.47
2019-03-01T12:56:26.422Z,10.70
2019-03-01T12:58:57.101Z,9.93
2019-03-01T13:01:27.969Z,8.07
2019-03-01T13:03:58.802Z,11.77
2019-03-01T13:06:29.659Z,10.67
2019-03-01T13:09:00.380Z,10.90
2019-03-01T13:11:31.066Z,7.90
2019-03-01T13:14:01.657Z,9.77
2019-03-01T13:16:32.598Z,7.93
2019-03-01T13:19:03.755Z,12.80
2019-03-01T13:21:34.684Z,6.50
2019-03-01T13:24:05.711Z,10.70
2019-03-01T13:26:37.680Z,9.97
2019-03-01T13:29:08.854Z,10.17
2019-03-01T13:31:39.601Z,11.63
2019-03-01T13:34:13.624Z,8.43
2019-03-01T13:36:42.949Z,8.40
2019-03-01T13:39:13.683Z,10.80
2019-03-01T13:41:44.562Z,10.00
2019-03-01T13:44:16.600Z,10.87
2019-03-01T13:46:47.668Z,10.27
2019-03-01T13:49:18.574Z,8.03
2019-03-01T13:51:53.064Z,7.57
2019-03-01T13:54:21.927Z,10.50
2019-03-01T13:56:53.113Z,10.43
2019-03-01T13:59:24.019Z,8.43
2019-03-01T14:01:54.770Z,9.57
2019-03-01T14:04:25.675Z,7.20
2019-03-01T14:06:56.978Z,9.95
2019-03-01T14:09:28.162Z,11.03
2019-03-01T14:12:00.345Z,12.65
2019-03-01T14:14:31.190Z,9.00
2019-03-01T14:17:02.257Z,7.27
2019-03-01T14:19:33.120Z,7.97
2019-03-01T14:22:05.266Z,8.77
2019-03-01T14:24:36.254Z,5.10
2019-03-01T14:27:06.965Z,5.67
2019-03-01T14:29:38.705Z,6.37
2019-03-01T14:32:09.399Z,6.00
2019-03-01T14:34:40.416Z,5.17
2019-03-01T14:37:15.122Z,5.67
2019-03-01T14:39:46.137Z,8.67
2019-03-01T14:42:16.938Z,6.87
2019-03-01T14:44:48.359Z,5.07
2019-03-01T14:47:19.225Z,5.23
2019-03-01T14:49:50.009Z,4.67
2019-03-01T14:52:22.185Z,3.47
2019-03-01T14:54:53.083Z,5.30
2019-03-01T14:57:28.794Z,5.45
2019-03-01T15:00:21.637Z,5.67
2019-03-01T15:03:06.840Z,3.97
2019-03-01T15:05:38.725Z,5.57
2019-03-01T15:08:10.537Z,6.90
2019-03-01T15:10:41.434Z,5.25
2019-03-01T15:13:12.347Z,5.13
2019-03-01T15:15:43.434Z,5.87
2019-03-01T15:18:14.587Z,6.15
2019-03-01T15:20:45.965Z,8.13
2019-03-01T15:23:16.799Z,7.97
2019-03-01T15:25:48.651Z,5.40
2019-03-01T15:28:20.014Z,5.80
2019-03-01T15:30:51.062Z,12.30
2019-03-01T15:33:21.861Z,5.30
2019-03-01T15:35:52.936Z,3.70
2019-03-01T15:38:27.728Z,11.93
2019-03-01T15:40:56.818Z,5.42
2019-03-01T15:43:29.910Z,3.75
2019-03-01T15:46:00.642Z,2.10
2019-03-01T15:48:34.429Z,8.73
2019-03-01T15:51:06.692Z,2.47
2019-03-01T15:53:38.016Z,5.40
2019-03-01T15:56:09.717Z,6.47
2019-03-01T15:58:40.908Z,3.50
2019-03-01T16:01:12.437Z,6.87
2019-03-01T16:03:43.618Z,4.27
2019-03-01T16:06:20.122Z,3.93
2019-03-01T16:08:48.159Z,5.53
2019-03-01T16:11:20.491Z,3.30
2019-03-01T16:13:51.516Z,8.85
2019-03-01T16:16:22.630Z,5.45
2019-03-01T21:24:34.826Z,18.82
2019-03-01T21:27:06.213Z,15.70
2019-03-01T21:29:36.753Z,19.52
2019-03-01T21:32:11.763Z,18.92
2019-03-01T21:34:42.220Z,26.05
2019-03-01T21:37:12.726Z,23.92
2019-03-01T21:39:43.320Z,31.10
2019-03-01T21:42:16.904Z,26.00
2019-03-01T21:44:46.713Z,27.65
2019-03-01T21:47:17.197Z,30.48
2019-03-01T21:49:47.806Z,27.60
2019-03-01T21:52:18.478Z,33.95
2019-03-01T21:54:51.990Z,38.15
2019-03-01T21:57:21.484Z,43.52
2019-03-01T21:59:52.507Z,42.33
2019-03-01T22:02:23.585Z,34.10
